Terminal Aerodrome Forecast
Issued by NWS Wakefield, VA

Home | Current Version | Previous Version | Text Only | Print | Product List | Glossary On
Versions: 1 2 3 4 5 6 7 8 9 10 11 12 13 14 15 16 17 18 19 20
000
FTUS41 KAKQ 261959 AAA
TAFORF
TAF AMD
KORF 261959Z 2620/2718 02008KT P6SM SCT040
     FM262100 03008KT P6SM BKN050
     FM262300 02005KT P6SM SCT250
     FM270300 VRB03KT P6SM SCT250
     FM270900 34006KT P6SM BKN100=

USA.gov is the U.S. government's official web portal to all federal, state and local government web resources and services.